createdAt,value
2023-01-21T00:01:56.574Z,1.80
2023-01-21T00:04:26.016Z,1.80
2023-01-21T00:06:54.201Z,1.80
2023-01-21T00:09:22.381Z,1.70
2023-01-21T00:11:50.589Z,1.70
2023-01-21T00:14:20.409Z,1.70
2023-01-21T00:16:48.692Z,1.60
2023-01-21T00:19:16.999Z,1.60
2023-01-21T00:21:45.134Z,1.60
2023-01-21T00:24:13.331Z,1.60
2023-01-21T00:26:41.505Z,1.50
2023-01-21T00:29:11.235Z,1.60
2023-01-21T00:31:43.545Z,1.50
2023-01-21T00:34:12.086Z,1.50
2023-01-21T00:36:40.582Z,1.50
2023-01-21T00:39:08.992Z,1.50
2023-01-21T00:41:38.097Z,1.50
2023-01-21T00:44:06.937Z,1.50
2023-01-21T00:46:35.235Z,1.50
2023-01-21T00:49:05.138Z,1.40
2023-01-21T00:51:33.392Z,1.40
2023-01-21T00:54:01.630Z,1.40
2023-01-21T00:56:29.814Z,1.50
2023-01-21T00:58:58.197Z,1.40
2023-01-21T01:01:30.468Z,1.50
2023-01-21T01:03:58.720Z,1.40
2023-01-21T01:06:29.116Z,1.40
2023-01-21T01:08:58.539Z,1.40
2023-01-21T01:11:28.078Z,1.40
2023-01-21T01:13:56.600Z,1.40
2023-01-21T01:16:25.436Z,1.40
2023-01-21T01:18:53.735Z,1.30
2023-01-21T01:21:23.339Z,1.40
2023-01-21T01:23:54.711Z,1.40
2023-01-21T01:26:23.792Z,1.40
2023-01-21T01:28:51.962Z,1.30
2023-01-21T01:31:21.056Z,1.40
2023-01-21T01:33:49.422Z,1.40
2023-01-21T01:36:20.465Z,1.50
2023-01-21T01:38:48.689Z,1.60
2023-01-21T01:41:20.123Z,1.50
2023-01-21T01:44:00.341Z,1.60
2023-01-21T01:46:31.636Z,1.50
2023-01-21T01:49:05.099Z,1.50
2023-01-21T01:51:41.235Z,1.40
2023-01-21T01:54:12.277Z,1.40
2023-01-21T01:56:46.816Z,1.40
2023-01-21T01:59:15.368Z,1.30
2023-01-21T02:01:43.707Z,1.20
2023-01-21T02:04:18.905Z,1.40
2023-01-21T02:06:48.997Z,1.50
2023-01-21T02:09:17.216Z,1.50
2023-01-21T02:11:46.947Z,1.40
2023-01-21T02:14:15.130Z,1.50
2023-01-21T02:16:55.068Z,1.50
2023-01-21T02:19:48.832Z,1.50
2023-01-21T02:22:23.420Z,1.50
2023-01-21T02:25:25.225Z,1.40
2023-01-21T02:28:11.203Z,1.40
2023-01-21T02:31:25.693Z,1.40
2023-01-21T02:34:17.476Z,1.50
2023-01-21T02:37:02.580Z,1.50
2023-01-21T02:39:45.347Z,1.60
2023-01-21T02:42:22.991Z,1.50
2023-01-21T02:45:00.902Z,1.50
2023-01-21T02:47:34.388Z,1.50
2023-01-21T02:50:07.067Z,1.50
2023-01-21T02:52:35.730Z,1.50
2023-01-21T02:55:05.048Z,1.50
2023-01-21T02:57:43.099Z,1.50
2023-01-21T03:00:17.003Z,1.50
2023-01-21T03:03:18.740Z,1.40
2023-01-21T03:06:09.406Z,1.30
2023-01-21T03:08:46.276Z,1.30
2023-01-21T03:11:17.726Z,1.40
2023-01-21T03:14:10.321Z,1.50
2023-01-21T03:16:59.937Z,1.50
2023-01-21T03:19:34.436Z,1.40
2023-01-21T03:22:09.370Z,1.40
2023-01-21T03:24:40.316Z,1.20
2023-01-21T03:27:09.999Z,1.20
2023-01-21T03:29:42.192Z,1.20
2023-01-21T03:32:15.140Z,1.20
2023-01-21T03:34:49.054Z,1.00
2023-01-21T03:37:25.496Z,1.10
2023-01-21T03:40:01.124Z,1.10
2023-01-21T03:42:29.761Z,1.10
2023-01-21T03:44:58.432Z,1.00
2023-01-21T03:47:31.841Z,0.90
2023-01-21T03:50:03.099Z,0.80
2023-01-21T03:52:32.936Z,1.00
2023-01-21T03:55:01.152Z,1.10
2023-01-21T03:57:29.309Z,0.90
2023-01-21T03:59:57.666Z,0.70
2023-01-21T04:02:25.878Z,0.80
2023-01-21T04:04:54.160Z,0.70
2023-01-21T04:07:22.481Z,0.80
2023-01-21T04:09:52.150Z,0.90
2023-01-21T04:12:20.404Z,0.60
2023-01-21T04:14:48.644Z,0.50
2023-01-21T04:17:16.783Z,0.60
2023-01-21T04:19:44.938Z,0.60
2023-01-21T04:22:13.158Z,0.40
2023-01-21T04:24:41.342Z,0.50
2023-01-21T04:27:10.974Z,0.60
2023-01-21T04:29:39.130Z,0.80
2023-01-21T04:32:07.411Z,0.80
2023-01-21T04:34:35.611Z,0.70
2023-01-21T04:37:03.902Z,0.70
2023-01-21T04:39:32.075Z,0.80
2023-01-21T04:42:00.333Z,0.70
2023-01-21T04:44:30.000Z,0.60
2023-01-21T04:46:58.274Z,0.70
2023-01-21T04:49:26.540Z,0.80
2023-01-21T04:51:54.816Z,0.70
2023-01-21T04:54:23.184Z,0.70
2023-01-21T04:56:51.380Z,0.70
2023-01-21T04:59:19.650Z,0.70
2023-01-21T05:01:49.343Z,0.50
2023-01-21T05:04:17.762Z,0.50
2023-01-21T05:06:46.022Z,0.50
2023-01-21T05:09:14.206Z,0.60
2023-01-21T05:11:42.385Z,0.60
2023-01-21T05:14:10.529Z,0.60
2023-01-21T05:16:38.929Z,0.50
2023-01-21T05:19:08.607Z,0.60
2023-01-21T05:21:37.065Z,0.60
2023-01-21T05:24:08.660Z,0.60
2023-01-21T05:26:37.211Z,0.50
2023-01-21T05:29:08.170Z,0.40
2023-01-21T05:31:36.732Z,0.50
2023-01-21T05:34:05.527Z,0.50
2023-01-21T05:36:35.227Z,0.40
2023-01-21T05:39:03.492Z,0.20
2023-01-21T05:41:31.899Z,0.20
2023-01-21T05:44:00.223Z,0.20
2023-01-21T05:46:28.474Z,0.20
2023-01-21T05:48:56.789Z,0.20
2023-01-21T05:51:25.165Z,0.30
2023-01-21T05:53:55.589Z,0.20
2023-01-21T05:56:23.853Z,0.10
2023-01-21T05:58:52.104Z,0.30
2023-01-21T06:01:20.309Z,0.20
2023-01-21T06:03:48.546Z,0.20
2023-01-21T06:06:16.708Z,0.20
2023-01-21T06:08:44.917Z,-0.20
2023-01-21T06:11:14.499Z,-0.30
2023-01-21T06:13:45.148Z,-0.10
2023-01-21T06:16:13.265Z,0.00
2023-01-21T06:18:41.421Z,0.10
2023-01-21T06:21:09.656Z,0.10
2023-01-21T06:23:37.776Z,0.00
2023-01-21T06:26:06.390Z,0.00
2023-01-21T06:28:35.914Z,-0.80
2023-01-21T06:31:04.358Z,-1.00
2023-01-21T06:33:32.667Z,-0.70
2023-01-21T06:36:03.719Z,-0.50
2023-01-21T06:38:31.871Z,-0.50
2023-01-21T06:41:00.138Z,-0.40
2023-01-21T06:43:28.265Z,-0.30
2023-01-21T06:45:57.790Z,-0.20
2023-01-21T06:48:26.088Z,-0.30
2023-01-21T06:50:54.340Z,-0.20
2023-01-21T06:53:22.615Z,-0.30
2023-01-21T06:55:53.510Z,-0.30
2023-01-21T06:58:21.858Z,-0.50
2023-01-21T07:00:50.167Z,-0.40
2023-01-21T07:03:19.791Z,-0.40
2023-01-21T07:05:47.965Z,-0.40
2023-01-21T07:08:16.249Z,-0.40
2023-01-21T07:10:47.447Z,-0.40
2023-01-21T07:13:16.038Z,-0.30
2023-01-21T07:15:44.296Z,-0.40
2023-01-21T07:18:15.507Z,-0.60
2023-01-21T07:20:45.241Z,-0.50
2023-01-21T07:23:13.461Z,-0.50
2023-01-21T07:25:41.645Z,-0.50
2023-01-21T07:28:09.963Z,-0.60
2023-01-21T07:30:38.561Z,-0.50
2023-01-21T07:33:07.482Z,-0.60
2023-01-21T07:35:36.151Z,-0.80
2023-01-21T07:38:05.898Z,-0.80
2023-01-21T07:40:34.197Z,-0.80
2023-01-21T07:43:02.594Z,-0.70
2023-01-21T07:45:31.411Z,-0.60
2023-01-21T07:48:00.241Z,-0.60
2023-01-21T07:50:28.613Z,-0.50
2023-01-21T07:52:56.760Z,-0.50
2023-01-21T07:55:26.427Z,-0.70
2023-01-21T08:30:05.155Z,-0.80
2023-01-21T08:32:33.310Z,-1.50
2023-01-21T08:35:01.440Z,-1.60
2023-01-21T08:37:29.669Z,-1.70
2023-01-21T08:39:57.873Z,-1.60
2023-01-21T08:42:26.184Z,-1.60
2023-01-21T08:44:54.373Z,-1.60
2023-01-21T08:47:23.919Z,-1.50
2023-01-21T08:49:52.336Z,-1.60
2023-01-21T08:52:21.561Z,-1.60
2023-01-21T08:54:50.904Z,-1.60
2023-01-21T08:57:19.172Z,-1.70
2023-01-21T08:59:47.427Z,-1.70
2023-01-21T09:02:15.854Z,-1.60
2023-01-21T09:04:45.437Z,-1.60
2023-01-21T09:07:13.620Z,-1.60
2023-01-21T09:09:42.034Z,-1.50
2023-01-21T09:12:10.255Z,-1.50
2023-01-21T09:14:38.520Z,-1.40
2023-01-21T09:17:06.807Z,-1.40
2023-01-21T09:19:35.048Z,-1.30
2023-01-21T09:22:06.705Z,-1.20
2023-01-21T09:24:35.052Z,-1.00
2023-01-21T09:27:03.246Z,-1.20
2023-01-21T09:29:31.336Z,-1.20
2023-01-21T09:31:59.638Z,-1.10
2023-01-21T09:34:27.891Z,-1.10
2023-01-21T09:36:56.121Z,-1.10
2023-01-21T09:39:26.144Z,-1.10
2023-01-21T09:41:58.225Z,-1.10
2023-01-21T09:44:32.662Z,-1.10
2023-01-21T09:47:05.359Z,-1.00
2023-01-21T09:49:39.300Z,-1.00
2023-01-21T09:52:15.064Z,-1.00
2023-01-21T09:54:45.015Z,-1.00
2023-01-21T09:57:52.990Z,-1.00
2023-01-21T10:00:30.030Z,-1.10
2023-01-21T10:03:04.670Z,-1.00
2023-01-21T10:06:09.408Z,-1.00
2023-01-21T10:08:48.628Z,-1.00
2023-01-21T10:11:31.835Z,-1.00
2023-01-21T10:14:14.813Z,-1.00
2023-01-21T10:16:52.024Z,-1.00
2023-01-21T10:19:24.327Z,-0.90
2023-01-21T10:21:57.026Z,-0.80
2023-01-21T10:24:30.277Z,-0.70
2023-01-21T10:27:01.438Z,-0.60
2023-01-21T10:29:30.180Z,-0.50
2023-01-21T10:32:02.587Z,-0.70
2023-01-21T10:34:32.405Z,-0.60
2023-01-21T10:37:15.314Z,-0.50
2023-01-21T10:39:53.886Z,-0.40
2023-01-21T10:42:57.440Z,-0.40
2023-01-21T10:45:32.657Z,-0.40
2023-01-21T10:48:07.034Z,-0.40
2023-01-21T10:50:44.239Z,-0.30
2023-01-21T10:53:21.577Z,-0.30
2023-01-21T10:55:59.707Z,-0.30
2023-01-21T10:58:34.658Z,-0.20
2023-01-21T11:01:06.438Z,-0.10
2023-01-21T11:03:41.588Z,-0.10
2023-01-21T11:06:13.422Z,-0.10
2023-01-21T11:08:45.281Z,-0.10
2023-01-21T11:11:16.733Z,0.40
2023-01-21T11:13:46.329Z,0.70
2023-01-21T11:16:14.826Z,0.20
2023-01-21T11:18:44.149Z,0.20
2023-01-21T11:21:18.609Z,0.20
2023-01-21T11:23:55.512Z,0.20
2023-01-21T11:26:27.686Z,0.10
2023-01-21T11:29:15.528Z,-0.10
2023-01-21T11:31:46.620Z,0.00
2023-01-21T11:34:17.132Z,0.00
2023-01-21T11:37:00.452Z,0.00
2023-01-21T11:39:30.816Z,-0.20
2023-01-21T11:42:05.449Z,-0.30
2023-01-21T11:44:35.401Z,-0.30
2023-01-21T11:47:03.640Z,-0.30
2023-01-21T11:49:33.612Z,-0.10
2023-01-21T11:52:16.142Z,-0.20
2023-01-21T11:54:44.384Z,-0.20
2023-01-21T11:57:25.614Z,-0.20
2023-01-21T11:59:57.984Z,-0.20
2023-01-21T12:02:30.027Z,-0.10
2023-01-21T12:05:02.807Z,-0.10
2023-01-21T12:07:32.922Z,-0.10
2023-01-21T12:10:07.592Z,-0.10
2023-01-21T12:12:46.966Z,0.00
2023-01-21T12:15:34.519Z,0.00
2023-01-21T12:18:12.678Z,0.00
2023-01-21T12:20:51.335Z,0.10
2023-01-21T12:23:37.100Z,0.10
2023-01-21T12:26:17.305Z,0.10
2023-01-21T12:29:03.611Z,0.10
2023-01-21T12:31:42.790Z,0.20
2023-01-21T12:34:20.716Z,0.30
2023-01-21T12:36:54.591Z,0.20
2023-01-21T12:39:26.162Z,0.20
2023-01-21T12:42:03.646Z,0.20
2023-01-21T12:44:37.039Z,0.10
2023-01-21T12:47:15.355Z,0.20
2023-01-21T12:50:12.088Z,0.30
2023-01-21T12:52:50.850Z,0.30
2023-01-21T12:55:25.468Z,0.20
2023-01-21T12:57:59.735Z,0.20
2023-01-21T13:00:32.268Z,0.20
2023-01-21T13:03:13.353Z,0.10
2023-01-21T13:05:51.519Z,0.00
2023-01-21T13:08:42.036Z,0.00
2023-01-21T13:11:19.187Z,0.60
2023-01-21T13:14:02.541Z,0.10
2023-01-21T13:16:32.217Z,-0.10
2023-01-21T13:19:01.804Z,-0.10
2023-01-21T13:21:37.390Z,0.00
2023-01-21T13:24:17.181Z,0.00
2023-01-21T13:26:51.398Z,0.00
2023-01-21T13:29:27.248Z,0.00
2023-01-21T13:32:12.427Z,0.00
2023-01-21T13:34:51.018Z,0.00
2023-01-21T13:37:30.478Z,0.00
2023-01-21T13:40:17.360Z,0.00
2023-01-21T13:42:54.488Z,0.10
2023-01-21T13:45:28.778Z,0.00
2023-01-21T13:48:15.485Z,0.00
2023-01-21T13:51:09.322Z,-0.10
2023-01-21T13:53:50.428Z,-0.10
2023-01-21T13:56:34.901Z,0.60
2023-01-21T13:59:09.771Z,0.00
2023-01-21T14:01:44.433Z,-0.20
2023-01-21T14:04:19.106Z,-0.10
2023-01-21T14:06:55.831Z,-0.10
2023-01-21T14:09:28.469Z,-0.20
2023-01-21T14:12:00.873Z,-0.20
2023-01-21T14:15:08.529Z,-0.20
2023-01-21T14:17:48.863Z,-0.30
2023-01-21T14:20:32.191Z,-0.30
2023-01-21T14:23:17.464Z,-0.30
2023-01-21T14:26:01.709Z,-0.40
2023-01-21T14:28:39.639Z,-0.40
2023-01-21T14:31:12.958Z,-0.50
2023-01-21T14:33:47.879Z,-0.60
2023-01-21T14:36:19.936Z,-0.60
2023-01-21T14:38:59.603Z,-0.60
2023-01-21T14:42:04.079Z,-0.60
2023-01-21T14:44:40.969Z,-0.60
2023-01-21T14:47:14.810Z,-0.60
2023-01-21T14:49:45.833Z,-0.70
2023-01-21T14:52:16.001Z,-0.70
2023-01-21T14:54:47.128Z,-0.70
2023-01-21T14:57:27.625Z,-0.70
2023-01-21T15:00:03.991Z,-0.70
2023-01-21T15:02:35.173Z,-0.70
2023-01-21T15:05:12.950Z,-0.70
2023-01-21T15:07:44.089Z,-0.70
2023-01-21T15:11:01.418Z,-0.60
2023-01-21T15:13:36.167Z,-0.40
2023-01-21T15:16:08.406Z,-0.30
2023-01-21T15:18:38.571Z,-0.60
2023-01-21T15:21:34.491Z,-0.70
2023-01-21T15:24:24.498Z,-0.70
2023-01-21T15:27:15.995Z,-0.60
2023-01-21T15:29:46.128Z,-0.60
2023-01-21T15:32:29.649Z,-0.60
2023-01-21T15:35:01.307Z,-0.60
2023-01-21T15:37:32.048Z,-0.70
2023-01-21T15:40:03.271Z,0.80
2023-01-21T15:42:44.165Z,-0.40
2023-01-21T15:45:23.759Z,-0.60
2023-01-21T15:48:15.329Z,-0.60
2023-01-21T15:50:50.053Z,-0.70
2023-01-21T15:53:43.680Z,-0.70
2023-01-21T15:56:24.138Z,-0.70
2023-01-21T15:59:05.027Z,0.10
2023-01-21T16:01:35.889Z,-0.60
2023-01-21T16:04:28.070Z,-0.60
2023-01-21T16:07:11.973Z,-0.50
2023-01-21T16:09:52.338Z,-0.50
2023-01-21T16:12:27.875Z,-0.60
2023-01-21T16:15:02.735Z,-0.70
2023-01-21T16:17:50.869Z,-0.60
2023-01-21T16:20:19.089Z,-0.60
2023-01-21T16:22:54.433Z,-0.60
2023-01-21T16:25:24.546Z,-0.70
2023-01-21T16:27:54.852Z,-0.70
2023-01-21T16:30:29.075Z,-0.70
2023-01-21T16:33:11.498Z,-0.70
2023-01-21T16:35:45.052Z,-0.70
2023-01-21T16:38:19.016Z,-0.70
2023-01-21T16:40:49.471Z,-0.70
2023-01-21T16:43:26.527Z,-0.70
2023-01-21T16:45:58.181Z,-0.70
2023-01-21T16:48:29.248Z,-0.70
2023-01-21T16:50:57.896Z,-0.60
2023-01-21T16:53:26.622Z,-0.60
2023-01-21T16:55:56.499Z,-0.70
2023-01-21T16:58:29.624Z,-0.70
2023-01-21T17:01:06.471Z,-0.70
2023-01-21T17:03:34.940Z,-0.70
2023-01-21T17:06:08.854Z,-0.70
2023-01-21T17:08:37.816Z,-0.70
2023-01-21T17:11:09.879Z,-0.70
2023-01-21T17:13:42.087Z,-0.70
2023-01-21T17:16:20.856Z,-0.80
2023-01-21T17:18:55.032Z,-0.80
2023-01-21T17:21:32.070Z,-0.70
2023-01-21T17:24:03.517Z,-0.80
2023-01-21T17:26:36.867Z,-0.80
2023-01-21T17:29:18.553Z,-0.80
2023-01-21T17:31:56.661Z,-0.80
2023-01-21T17:34:27.196Z,-0.80
2023-01-21T17:36:56.366Z,-0.80
2023-01-21T17:40:00.996Z,-0.80
2023-01-21T17:42:39.319Z,-0.80
2023-01-21T17:45:17.514Z,-0.80
2023-01-21T17:48:08.017Z,-0.80
2023-01-21T17:50:37.127Z,-0.80
2023-01-21T17:53:09.659Z,-0.80
2023-01-21T17:55:40.180Z,-0.80
2023-01-21T17:58:45.822Z,-0.80
2023-01-21T18:01:14.452Z,-0.70
2023-01-21T18:03:44.398Z,-0.70
2023-01-21T18:06:18.519Z,-0.70
2023-01-21T18:08:47.204Z,-0.70
2023-01-21T18:11:17.399Z,-0.70
2023-01-21T18:13:46.008Z,-0.70
2023-01-21T18:16:14.327Z,-0.70
2023-01-21T18:18:44.112Z,-0.60
2023-01-21T18:21:19.878Z,-0.60
2023-01-21T18:23:48.318Z,-0.70
2023-01-21T18:26:28.553Z,-0.60
2023-01-21T18:28:56.757Z,-0.60
2023-01-21T18:31:25.122Z,-0.60
2023-01-21T18:33:54.874Z,-0.60
2023-01-21T18:36:23.044Z,-0.60
2023-01-21T18:38:51.415Z,-0.70
2023-01-21T18:41:19.624Z,-0.70
2023-01-21T18:43:47.855Z,-0.60
2023-01-21T18:46:17.178Z,-0.70
2023-01-21T18:48:45.407Z,-0.60
2023-01-21T18:51:15.285Z,-0.70
2023-01-21T18:53:43.464Z,-0.60
2023-01-21T18:56:14.137Z,-0.70
2023-01-21T18:58:42.407Z,-0.60
2023-01-21T19:01:22.521Z,-0.60
2023-01-21T19:03:53.988Z,-0.60
2023-01-21T19:06:24.721Z,-0.60
2023-01-21T19:08:55.048Z,-0.60
2023-01-21T19:11:23.890Z,-0.60
2023-01-21T19:13:52.523Z,-0.60
2023-01-21T19:16:21.800Z,-0.60
2023-01-21T19:18:50.217Z,-0.60
2023-01-21T19:21:18.390Z,-0.60
2023-01-21T19:23:48.012Z,-0.60
2023-01-21T19:26:16.735Z,-0.60
2023-01-21T19:28:44.880Z,-0.60
2023-01-21T19:31:13.395Z,-0.60
2023-01-21T19:33:45.784Z,-0.60
2023-01-21T19:36:16.473Z,-0.60
2023-01-21T19:38:49.808Z,-0.70
2023-01-21T19:41:17.949Z,-0.60
2023-01-21T19:43:46.224Z,-0.60
2023-01-21T19:46:14.830Z,-0.60
2023-01-21T19:48:43.297Z,-0.60
2023-01-21T19:51:11.865Z,-0.60
2023-01-21T19:53:40.087Z,-0.60
2023-01-21T19:56:15.605Z,-0.60
2023-01-21T19:58:43.884Z,-0.60
2023-01-21T20:01:12.492Z,-0.60
2023-01-21T20:03:54.745Z,-0.60
2023-01-21T20:06:28.524Z,-0.60
2023-01-21T20:08:56.834Z,-0.70
2023-01-21T20:11:26.711Z,-0.60
2023-01-21T20:13:55.075Z,-0.60
2023-01-21T20:16:26.238Z,-0.60
2023-01-21T20:18:56.399Z,-0.60
2023-01-21T20:21:24.674Z,-0.60
2023-01-21T20:23:52.826Z,-0.60
2023-01-21T20:26:25.792Z,-0.60
2023-01-21T20:28:55.477Z,-0.70
2023-01-21T20:31:23.940Z,-0.70
2023-01-21T20:33:52.156Z,-0.70
2023-01-21T20:36:22.334Z,-0.70
2023-01-21T20:38:50.820Z,-0.60
2023-01-21T20:41:19.126Z,-0.60
2023-01-21T20:43:47.517Z,-0.60
2023-01-21T20:46:21.021Z,-0.60
2023-01-21T20:48:51.589Z,-0.70
2023-01-21T20:51:20.817Z,-0.60
2023-01-21T20:53:49.271Z,-0.60
2023-01-21T20:56:19.913Z,-0.60
2023-01-21T20:58:48.958Z,-0.60
2023-01-21T21:01:20.588Z,-0.60
2023-01-21T21:03:49.871Z,-0.60
2023-01-21T21:06:19.958Z,-0.60
2023-01-21T21:08:50.087Z,-0.60
2023-01-21T21:11:20.011Z,-0.60
2023-01-21T21:13:51.865Z,-0.60
2023-01-21T21:16:24.367Z,-0.60
2023-01-21T21:18:53.123Z,-0.60
2023-01-21T21:21:23.843Z,-0.70
2023-01-21T21:23:52.931Z,-0.70
2023-01-21T21:26:23.713Z,-0.70
2023-01-21T21:28:54.766Z,-0.70
2023-01-21T21:31:26.138Z,-0.70
2023-01-21T21:33:54.497Z,-0.60
2023-01-21T21:36:24.695Z,-0.70
2023-01-21T21:38:55.870Z,-0.70
2023-01-21T21:41:43.288Z,-0.70
2023-01-21T21:44:12.251Z,-0.70
2023-01-21T21:46:59.797Z,-0.70
2023-01-21T21:49:28.768Z,-0.80
2023-01-21T21:51:57.190Z,-0.80
2023-01-21T21:54:25.343Z,-0.80
2023-01-21T21:56:53.560Z,-0.80
2023-01-21T21:59:21.736Z,-0.80
2023-01-21T22:01:51.464Z,-0.80
2023-01-21T22:04:21.315Z,-0.80
2023-01-21T22:06:49.469Z,-0.80
2023-01-21T22:09:18.058Z,-0.80
2023-01-21T22:11:46.220Z,-0.80
2023-01-21T22:14:14.468Z,-0.80
2023-01-21T22:16:42.936Z,-0.80
2023-01-21T22:19:13.286Z,-0.80
2023-01-21T22:21:41.428Z,-0.80
2023-01-21T22:24:10.687Z,-0.80
2023-01-21T22:26:39.202Z,-0.80
2023-01-21T22:29:07.538Z,-0.80
2023-01-21T22:31:36.098Z,-0.80
2023-01-21T22:34:04.425Z,-0.80
2023-01-21T22:36:34.636Z,-0.80
2023-01-21T22:39:02.830Z,-0.90
2023-01-21T22:41:31.243Z,-0.80
2023-01-21T22:43:59.503Z,-0.80
2023-01-21T22:46:31.551Z,-0.80
2023-01-21T22:48:59.934Z,-0.80
2023-01-21T22:51:28.461Z,-0.80
2023-01-21T22:54:00.275Z,-0.90
2023-01-21T22:56:49.647Z,-0.90
2023-01-21T22:59:16.889Z,-0.90
2023-01-21T23:01:45.159Z,-0.90
2023-01-21T23:04:14.916Z,-0.80
2023-01-21T23:06:44.910Z,-0.90
2023-01-21T23:09:16.405Z,-0.90
2023-01-21T23:11:45.223Z,-0.90
2023-01-21T23:14:14.030Z,-1.00
2023-01-21T23:16:42.239Z,-1.00
2023-01-21T23:19:10.698Z,-1.00
2023-01-21T23:21:39.032Z,-1.00
2023-01-21T23:24:08.430Z,-1.00
2023-01-21T23:26:39.038Z,-1.00
2023-01-21T23:29:07.194Z,-1.00
2023-01-21T23:31:35.614Z,-1.00
2023-01-21T23:34:04.436Z,-1.00
2023-01-21T23:36:32.655Z,-1.00
2023-01-21T23:39:00.898Z,-1.00
2023-01-21T23:41:29.173Z,-0.90
2023-01-21T23:44:01.369Z,-1.00
2023-01-21T23:46:29.870Z,-0.90
2023-01-21T23:48:58.073Z,-0.90
2023-01-21T23:51:26.428Z,-0.90
2023-01-21T23:53:54.610Z,-0.90
2023-01-21T23:56:25.341Z,-0.90
2023-01-21T23:58:53.734Z,-0.90
